Time;durP1;ratioP1;P1;durP2;ratioP2;P2;SDS_P1;SDS_P2;PMS_P1;PMS_P2;Temp;Humidity;BMP_temperature;BMP_pressure;BME280_temperature;BME280_humidity;BME280_pressure;Samples;Min_cycle;Max_cycle;Signal;HPM_P1;HPM_P2
2021/12/28 00:00:53;;;;;;;22.88;14.68;;;;;;;2.70;100.00;95482.63;5027897;28;20044;-64
2021/12/28 00:03:19;;;;;;;28.40;16.10;;;;;;;2.58;100.00;95483.47;5048459;28;20033;-64
2021/12/28 00:05:44;;;;;;;26.92;14.13;;;;;;;2.67;100.00;95484.88;5054467;28;20159;-64
2021/12/28 00:08:09;;;;;;;21.08;13.43;;;;;;;2.73;100.00;95476.53;5038608;28;20104;-64
2021/12/28 00:10:35;;;;;;;20.98;13.23;;;;;;;2.72;100.00;95477.66;5042160;28;20064;-63
2021/12/28 00:13:00;;;;;;;18.98;12.30;;;;;;;2.63;100.00;95465.09;5044455;28;20121;-63
2021/12/28 00:18:00;;;;;;;17.88;11.43;;;;;;;2.58;100.00;95459.94;5025766;28;20120;-63
2021/12/28 00:20:33;;;;;;;16.77;10.82;;;;;;;2.51;100.00;95461.66;5035536;28;20095;-63
2021/12/28 00:22:59;;;;;;;19.10;11.43;;;;;;;2.42;100.00;95457.16;5027157;28;20080;-62
2021/12/28 00:25:25;;;;;;;16.55;11.40;;;;;;;2.36;100.00;95458.56;5019419;28;20409;-63
2021/12/28 00:27:50;;;;;;;18.02;10.70;;;;;;;2.33;100.00;95461.16;5023659;28;20075;-67
2021/12/28 00:30:16;;;;;;;16.70;11.43;;;;;;;2.19;100.00;95459.63;5019995;28;20045;-64
2021/12/28 00:32:42;;;;;;;16.45;11.00;;;;;;;2.13;100.00;95461.00;5025001;28;20041;-63
2021/12/28 00:35:08;;;;;;;17.08;11.23;;;;;;;2.10;100.00;95461.66;5020414;28;20045;-63
2021/12/28 00:37:35;;;;;;;17.17;9.85;;;;;;;2.19;100.00;95456.13;5024607;28;20041;-64
2021/12/28 00:40:02;;;;;;;12.60;9.02;;;;;;;2.24;100.00;95455.91;5023739;28;20033;-64
2021/12/28 00:42:27;;;;;;;12.38;8.65;;;;;;;2.18;100.00;95452.66;5024275;28;20052;-63
2021/12/28 00:44:53;;;;;;;12.15;8.57;;;;;;;2.12;100.00;95443.19;5021781;28;20041;-63
2021/12/28 00:47:18;;;;;;;13.25;8.90;;;;;;;2.10;100.00;95446.25;5017794;28;20454;-63
2021/12/28 00:49:44;;;;;;;13.18;8.23;;;;;;;2.11;100.00;95452.44;5023843;28;20045;-63
2021/12/28 00:52:09;;;;;;;11.27;8.00;;;;;;;2.00;100.00;95451.34;5017256;28;20033;-64
2021/12/28 00:54:35;;;;;;;11.32;7.97;;;;;;;1.94;100.00;95440.00;5032141;28;20190;-64
2021/12/28 00:57:01;;;;;;;12.63;8.10;;;;;;;2.05;100.00;95441.09;5042475;28;20041;-64
2021/12/28 00:59:27;;;;;;;14.13;8.63;;;;;;;1.96;100.00;95429.63;5033784;28;20041;-63
2021/12/28 01:01:53;;;;;;;11.77;8.27;;;;;;;2.01;100.00;95426.69;5018914;28;20048;-63
2021/12/28 01:04:18;;;;;;;14.43;8.35;;;;;;;2.01;100.00;95425.91;5000651;28;20045;-63
2021/12/28 01:06:44;;;;;;;12.75;9.15;;;;;;;1.92;100.00;95428.75;5022839;28;20038;-63
2021/12/28 01:09:10;;;;;;;12.65;7.72;;;;;;;1.80;100.00;95413.38;5017076;28;20441;-63
2021/12/28 01:11:35;;;;;;;14.77;8.98;;;;;;;1.77;100.00;95411.34;5028058;28;20044;-65
2021/12/28 01:14:01;;;;;;;14.10;9.10;;;;;;;1.74;100.00;95413.94;5052108;28;20044;-64
2021/12/28 01:16:26;;;;;;;17.50;10.05;;;;;;;1.67;100.00;95409.13;5047665;28;20071;-65
2021/12/28 01:18:52;;;;;;;17.08;9.88;;;;;;;1.78;100.00;95396.72;5050353;28;20074;-64
2021/12/28 01:21:19;;;;;;;20.42;10.32;;;;;;;1.84;100.00;95402.69;5040367;28;20041;-64
2021/12/28 01:23:44;;;;;;;18.88;11.40;;;;;;;1.85;100.00;95396.91;5042806;28;20048;-63
2021/12/28 01:26:10;;;;;;;21.30;11.23;;;;;;;1.76;100.00;95395.50;5037196;28;20394;-65
2021/12/28 01:28:35;;;;;;;21.58;11.95;;;;;;;1.34;100.00;95385.78;5042672;28;20444;-65
2021/12/28 01:31:01;;;;;;;26.23;13.20;;;;;;;1.30;100.00;95393.78;5042136;28;20075;-65
2021/12/28 01:33:27;;;;;;;29.27;13.65;;;;;;;1.29;100.00;95394.88;5038694;28;20122;-66
2021/12/28 01:35:54;;;;;;;25.85;13.23;;;;;;;1.27;100.00;95391.75;5042557;28;20045;-65
2021/12/28 01:38:19;;;;;;;21.35;12.23;;;;;;;1.31;100.00;95389.97;5034836;28;20431;-65
2021/12/28 01:40:45;;;;;;;19.95;11.70;;;;;;;1.47;100.00;95381.16;5041827;28;20048;-65
2021/12/28 01:43:16;;;;;;;21.83;11.60;;;;;;;1.49;100.00;95381.59;5019499;28;20052;-66
2021/12/28 01:45:54;;;;;;;21.25;11.88;;;;;;;1.56;100.00;95364.84;5040070;28;20090;-65
2021/12/28 01:48:21;;;;;;;24.00;14.32;;;;;;;1.42;100.00;95365.19;5036466;28;20073;-64
2021/12/28 01:50:48;;;;;;;34.08;17.10;;;;;;;1.63;100.00;95365.81;5041474;28;20029;-63
2021/12/28 01:53:15;;;;;;;35.17;16.73;;;;;;;1.59;100.00;95356.06;5036358;28;20063;-63
2021/12/28 01:55:44;;;;;;;30.23;15.93;;;;;;;1.53;100.00;95355.50;5044425;28;20098;-64
2021/12/28 01:58:10;;;;;;;26.20;15.10;;;;;;;1.45;100.00;95341.03;5028875;28;20052;-63
2021/12/28 02:00:38;;;;;;;35.13;19.88;;;;;;;1.50;100.00;95343.47;5022939;28;20040;-63
2021/12/28 02:03:08;;;;;;;41.72;20.45;;;;;;;1.82;100.00;95335.53;5036713;28;20056;-64
2021/12/28 02:05:34;;;;;;;39.00;20.98;;;;;;;1.97;100.00;95330.53;5024338;28;20367;-64
2021/12/28 02:08:00;;;;;;;45.70;22.70;;;;;;;2.21;100.00;95324.19;5024412;28;20087;-63
2021/12/28 02:10:25;;;;;;;42.75;22.05;;;;;;;2.11;100.00;95320.09;5032280;28;20767;-63
2021/12/28 02:12:51;;;;;;;47.05;23.20;;;;;;;2.15;100.00;95317.50;5033252;28;20048;-63
2021/12/28 02:15:16;;;;;;;47.10;25.70;;;;;;;2.12;100.00;95312.78;5038786;28;20452;-64
2021/12/28 02:17:42;;;;;;;51.28;28.63;;;;;;;2.26;100.00;95313.94;5029772;28;20056;-64
2021/12/28 02:20:15;;;;;;;48.42;27.33;;;;;;;2.35;100.00;95310.28;5044726;28;20033;-64
2021/12/28 02:22:41;;;;;;;53.55;27.33;;;;;;;2.33;100.00;95304.44;5049307;28;20049;-64
2021/12/28 02:25:08;;;;;;;49.05;25.58;;;;;;;2.22;100.00;95301.47;5042509;28;20505;-64
2021/12/28 02:27:34;;;;;;;43.95;22.75;;;;;;;2.23;100.00;95290.31;5048970;28;20424;-63
2021/12/28 02:30:01;;;;;;;40.67;19.90;;;;;;;2.33;100.00;95291.72;5046650;28;20132;-64
2021/12/28 02:32:29;;;;;;;34.47;18.17;;;;;;;2.34;100.00;95289.78;5042599;28;20619;-64
2021/12/28 02:34:55;;;;;;;36.42;19.02;;;;;;;2.32;100.00;95287.44;5047041;28;20052;-64
2021/12/28 02:37:21;;;;;;;26.73;14.82;;;;;;;2.35;100.00;95281.34;5036064;28;20045;-64
2021/12/28 02:39:47;;;;;;;26.05;11.95;;;;;;;2.58;100.00;95268.00;5044626;28;20048;-64
2021/12/28 02:42:16;;;;;;;18.95;10.65;;;;;;;2.62;100.00;95268.09;5043394;28;20052;-63
2021/12/28 02:44:42;;;;;;;19.58;11.02;;;;;;;2.58;100.00;95273.41;5048616;28;20132;-64
2021/12/28 02:47:07;;;;;;;15.75;9.15;;;;;;;2.58;100.00;95259.91;5041401;28;20065;-64
2021/12/28 02:49:35;;;;;;;17.58;9.52;;;;;;;2.48;100.00;95258.53;5044286;28;20098;-65
2021/12/28 02:52:00;;;;;;;20.33;9.95;;;;;;;2.41;100.00;95258.34;5046588;28;20195;-64
2021/12/28 02:54:26;;;;;;;20.45;9.82;;;;;;;2.60;100.00;95251.44;5039997;28;20533;-66
2021/12/28 02:56:51;;;;;;;14.68;8.55;;;;;;;2.59;100.00;95258.78;5048574;28;20037;-66
2021/12/28 02:59:17;;;;;;;17.52;8.45;;;;;;;2.53;100.00;95264.78;5042890;28;20033;-66
2021/12/28 03:01:42;;;;;;;14.38;9.02;;;;;;;2.55;100.00;95259.81;5048833;28;20048;-66
2021/12/28 03:04:08;;;;;;;12.57;7.35;;;;;;;2.50;100.00;95255.44;5042085;28;20037;-66
2021/12/28 03:06:35;;;;;;;14.77;8.52;;;;;;;2.46;100.00;95259.97;5046549;28;20112;-66
2021/12/28 03:09:04;;;;;;;12.40;7.80;;;;;;;2.42;100.00;95251.78;5042895;28;20051;-65
2021/12/28 03:11:30;;;;;;;12.43;6.75;;;;;;;2.55;100.00;95251.69;5037248;28;20044;-65
2021/12/28 03:13:58;;;;;;;13.13;6.43;;;;;;;2.67;100.00;95246.97;5035782;28;20100;-66
2021/12/28 03:16:26;;;;;;;11.32;7.22;;;;;;;2.78;100.00;95249.94;5034583;28;20082;-66
2021/12/28 03:18:52;;;;;;;11.82;6.72;;;;;;;2.78;100.00;95238.34;5032642;28;20071;-66
2021/12/28 03:21:20;;;;;;;9.32;5.80;;;;;;;2.78;100.00;95238.34;5045158;28;20029;-66
2021/12/28 03:23:46;;;;;;;12.60;5.88;;;;;;;2.76;100.00;95230.56;5050330;28;20108;-66
2021/12/28 03:26:13;;;;;;;10.07;6.55;;;;;;;2.72;100.00;95218.09;5041918;28;20075;-67
2021/12/28 03:28:41;;;;;;;7.43;5.32;;;;;;;2.61;100.00;95215.16;5046449;28;20191;-66
2021/12/28 03:31:08;;;;;;;10.88;6.15;;;;;;;2.61;100.00;95215.16;5044340;28;20045;-66
2021/12/28 03:33:36;;;;;;;12.30;6.75;;;;;;;2.61;100.00;95207.03;5048485;28;20047;-66
2021/12/28 03:36:04;;;;;;;9.98;6.00;;;;;;;2.67;100.00;95200.25;5038059;28;20044;-65
2021/12/28 03:38:30;;;;;;;10.95;6.13;;;;;;;2.66;100.00;95185.16;5017996;28;20128;-66
2021/12/28 03:40:55;;;;;;;10.23;6.22;;;;;;;2.60;100.00;95184.63;5037239;28;20739;-66
2021/12/28 03:43:22;;;;;;;9.38;5.72;;;;;;;2.63;100.00;95175.84;5024171;28;20398;-65
2021/12/28 03:45:48;;;;;;;8.35;5.65;;;;;;;2.73;100.00;95163.69;5025643;28;20037;-66
2021/12/28 03:48:14;;;;;;;8.23;5.30;;;;;;;2.77;100.00;95159.13;5018568;28;20050;-66
2021/12/28 03:50:40;;;;;;;7.95;5.07;;;;;;;2.75;100.00;95161.41;5025319;28;20163;-66
2021/12/28 03:53:07;;;;;;;7.30;4.88;;;;;;;2.88;100.00;95167.47;5038807;28;20095;-67
2021/12/28 03:55:33;;;;;;;8.73;4.93;;;;;;;2.97;100.00;95176.19;5046689;28;20087;-64
2021/12/28 03:58:00;;;;;;;5.90;3.88;;;;;;;3.11;100.00;95193.84;5025528;28;20048;-66
2021/12/28 04:00:42;;;;;;;5.13;3.45;;;;;;;3.34;100.00;95200.09;5043459;28;20059;-67
2021/12/28 04:03:08;;;;;;;5.22;3.53;;;;;;;3.35;100.00;95209.81;5023728;28;20065;-64
2021/12/28 04:05:35;;;;;;;5.93;3.72;;;;;;;3.37;100.00;95218.34;5027409;28;20425;-65
2021/12/28 04:08:00;;;;;;;5.68;3.80;;;;;;;3.33;100.00;95209.38;5038346;28;20060;-64
2021/12/28 04:10:32;;;;;;;6.68;3.30;;;;;;;3.34;100.00;95219.03;5044258;28;20048;-65
2021/12/28 04:12:59;;;;;;;4.93;3.53;;;;;;;3.42;100.00;95209.94;5053076;28;20052;-65
2021/12/28 04:15:25;;;;;;;6.68;3.83;;;;;;;3.52;100.00;95210.50;5037710;28;20241;-65
2021/12/28 04:17:50;;;;;;;6.38;3.15;;;;;;;3.56;100.00;95216.75;5040618;28;20076;-64
2021/12/28 04:20:20;;;;;;;5.57;3.53;;;;;;;3.31;100.00;95202.75;5033553;28;20053;-66
2021/12/28 04:22:45;;;;;;;5.47;3.38;;;;;;;3.25;100.00;95203.00;5038462;28;20064;-64
2021/12/28 04:25:14;;;;;;;10.27;3.78;;;;;;;3.32;100.00;95207.03;5034734;28;20052;-64
2021/12/28 04:27:41;;;;;;;6.90;3.40;;;;;;;3.53;100.00;95209.34;5033762;28;20175;-65
2021/12/28 04:30:08;;;;;;;10.80;4.63;;;;;;;3.29;100.00;95208.50;5033062;28;20424;-64
2021/12/28 04:32:33;;;;;;;7.40;3.50;;;;;;;3.28;100.00;95200.72;5039371;28;20041;-65
2021/12/28 04:34:59;;;;;;;10.90;5.55;;;;;;;3.15;100.00;95198.19;5038919;28;20048;-65
2021/12/28 04:37:25;;;;;;;6.15;3.78;;;;;;;3.12;100.00;95188.06;5020477;28;20367;-65
2021/12/28 04:39:51;;;;;;;9.13;4.43;;;;;;;3.16;100.00;95210.56;5037949;28;20041;-64
2021/12/28 04:42:16;;;;;;;9.13;4.65;;;;;;;2.95;100.00;95194.66;5034618;28;20041;-65
2021/12/28 04:44:42;;;;;;;8.40;4.70;;;;;;;3.05;100.00;95201.44;5038756;28;20053;-64
2021/12/28 04:47:07;;;;;;;7.80;4.68;;;;;;;3.02;100.00;95197.50;5024884;28;20095;-66
2021/12/28 04:49:33;;;;;;;7.75;4.95;;;;;;;3.02;100.00;95211.03;5037579;28;20485;-65
2021/12/28 04:51:59;;;;;;;7.97;4.72;;;;;;;3.10;100.00;95205.78;5011455;28;20518;-64
2021/12/28 04:54:25;;;;;;;8.32;4.88;;;;;;;3.08;100.00;95191.81;5013181;28;20073;-63
2021/12/28 04:56:51;;;;;;;7.68;5.10;;;;;;;3.07;100.00;95196.47;5036022;28;20110;-64
2021/12/28 04:59:17;;;;;;;8.20;5.18;;;;;;;3.11;100.00;95205.44;5014994;28;20057;-65
2021/12/28 05:01:43;;;;;;;8.82;4.05;;;;;;;3.13;100.00;95200.44;5038810;28;20037;-64
2021/12/28 05:04:09;;;;;;;9.10;4.43;;;;;;;3.24;100.00;95197.97;5036264;28;20125;-64
2021/12/28 05:06:35;;;;;;;7.72;4.78;;;;;;;3.26;100.00;95206.53;5042968;28;20133;-64
2021/12/28 05:09:05;;;;;;;8.68;4.93;;;;;;;3.15;100.00;95219.84;5043085;28;20045;-65
2021/12/28 05:11:32;;;;;;;8.57;5.38;;;;;;;3.17;100.00;95217.56;5036762;28;20044;-64
2021/12/28 05:13:58;;;;;;;11.10;4.90;;;;;;;2.98;100.00;95217.53;5043306;28;20044;-63
2021/12/28 05:16:28;;;;;;;8.98;4.40;;;;;;;2.97;100.00;95224.88;5055422;28;20037;-64
2021/12/28 05:18:54;;;;;;;;;;;;;;;2.98;100.00;95229.13;5049574;28;20044;-63
2021/12/28 05:21:19;;;;;;;7.53;5.05;;;;;;;3.14;100.00;95229.06;5037275;28;19928;-63
2021/12/28 05:23:44;;;;;;;12.77;5.97;;;;;;;3.24;100.00;95231.22;5041524;28;20045;-64
2021/12/28 05:26:10;;;;;;;9.75;6.32;;;;;;;2.95;100.00;95229.03;5036571;28;20175;-64
2021/12/28 05:28:35;;;;;;;9.95;7.10;;;;;;;3.03;100.00;95231.56;5050921;28;20083;-64
2021/12/28 05:31:01;;;;;;;7.88;5.70;;;;;;;3.14;100.00;95239.91;5054454;28;20043;-64
2021/12/28 05:33:26;;;;;;;9.68;6.10;;;;;;;3.12;100.00;95233.28;5045153;28;20037;-67
2021/12/28 05:35:52;;;;;;;8.93;5.13;;;;;;;3.32;100.00;95225.97;5029924;28;20049;-65
2021/12/28 05:38:17;;;;;;;9.18;5.57;;;;;;;3.41;100.00;95235.44;5041037;28;20052;-65
2021/12/28 05:40:43;;;;;;;9.50;6.22;;;;;;;3.55;100.00;95236.88;5029947;28;20041;-65
2021/12/28 05:43:08;;;;;;;9.52;5.80;;;;;;;3.56;100.00;95238.41;5026435;28;20044;-65
2021/12/28 05:45:34;;;;;;;10.52;6.45;;;;;;;3.33;100.00;95246.47;5042965;28;20045;-65
2021/12/28 05:47:59;;;;;;;13.57;9.18;;;;;;;3.34;100.00;95256.16;5043028;28;20081;-64
2021/12/28 05:50:25;;;;;;;14.30;8.25;;;;;;;3.52;100.00;95245.69;5023968;28;20050;-64
2021/12/28 05:52:50;;;;;;;12.65;7.00;;;;;;;3.38;100.00;95224.53;5003299;28;20044;-65
2021/12/28 05:55:15;;;;;;;9.40;6.03;;;;;;;3.29;100.00;95229.38;5016584;28;20123;-64
2021/12/28 05:57:41;;;;;;;11.40;6.45;;;;;;;3.21;100.00;95226.53;5029143;28;20107;-64
2021/12/28 06:00:09;;;;;;;11.27;6.65;;;;;;;3.16;100.00;95229.50;5031323;28;20030;-65
2021/12/28 06:02:35;;;;;;;9.38;6.50;;;;;;;3.28;100.00;95235.91;5032423;28;20033;-65
2021/12/28 06:05:01;;;;;;;10.88;6.50;;;;;;;3.42;100.00;95239.72;5023076;28;20041;-65
2021/12/28 06:07:27;;;;;;;9.27;6.03;;;;;;;3.47;100.00;95237.84;5036180;28;20076;-66
2021/12/28 06:09:56;;;;;;;8.45;6.07;;;;;;;3.52;100.00;95243.00;5021659;28;20040;-65
2021/12/28 06:12:22;;;;;;;13.70;7.50;;;;;;;3.59;100.00;95240.41;5016814;28;20057;-65
2021/12/28 06:14:48;;;;;;;11.98;5.45;;;;;;;3.66;100.00;95227.03;5022019;28;20049;-65
2021/12/28 06:17:13;;;;;;;9.48;5.30;;;;;;;3.73;100.00;95259.66;5015870;28;20053;-65
2021/12/28 06:19:39;;;;;;;7.47;5.35;;;;;;;3.73;100.00;95261.59;5034639;28;20095;-64
2021/12/28 06:22:04;;;;;;;8.05;4.85;;;;;;;3.69;100.00;95249.88;5017293;28;20502;-66
2021/12/28 06:24:30;;;;;;;10.00;4.95;;;;;;;3.80;100.00;95259.03;5034452;28;20045;-65
2021/12/28 06:26:55;;;;;;;9.23;5.15;;;;;;;3.74;100.00;95255.00;5021609;28;20042;-66
2021/12/28 06:29:21;;;;;;;7.07;5.03;;;;;;;3.70;100.00;95251.47;5016071;28;20137;-65
2021/12/28 06:31:46;;;;;;;6.78;4.35;;;;;;;3.56;100.00;95206.72;5019297;28;20047;-65
2021/12/28 06:34:12;;;;;;;9.00;5.45;;;;;;;3.23;100.00;95226.16;5016558;28;20445;-64
2021/12/28 06:36:37;;;;;;;8.15;5.38;;;;;;;3.28;100.00;95235.91;5027281;28;20046;-64
2021/12/28 06:39:03;;;;;;;11.25;6.13;;;;;;;3.28;100.00;95223.19;5031960;28;20044;-64
2021/12/28 06:41:29;;;;;;;10.73;6.10;;;;;;;3.33;100.00;95236.44;5039728;28;20049;-64
2021/12/28 06:43:54;;;;;;;10.52;6.38;;;;;;;3.44;100.00;95237.44;5040830;28;20093;-63
2021/12/28 06:46:20;;;;;;;11.68;5.78;;;;;;;3.60;100.00;95231.16;5036464;28;20056;-63
2021/12/28 06:48:46;;;;;;;12.00;5.70;;;;;;;3.74;100.00;95247.66;5039472;28;20590;-64
2021/12/28 06:51:11;;;;;;;9.27;5.40;;;;;;;3.80;100.00;95245.47;5027197;28;20049;-65
2021/12/28 06:53:37;;;;;;;10.05;5.07;;;;;;;3.94;100.00;95256.56;5024961;28;20046;-65
2021/12/28 06:56:05;;;;;;;8.40;4.90;;;;;;;3.99;100.00;95261.69;5032234;28;20041;-66
2021/12/28 06:58:30;;;;;;;8.05;4.70;;;;;;;4.04;100.00;95284.22;5018425;28;20045;-66
2021/12/28 07:00:56;;;;;;;10.40;4.28;;;;;;;4.02;100.00;95303.53;5021164;28;20848;-66
2021/12/28 07:03:22;;;;;;;10.20;5.35;;;;;;;4.20;100.00;95299.22;5016074;28;20161;-66
2021/12/28 07:05:47;;;;;;;10.88;5.10;;;;;;;4.30;100.00;95287.00;5026225;28;20045;-66
2021/12/28 07:08:14;;;;;;;10.18;5.30;;;;;;;4.33;100.00;95259.19;5025701;28;20038;-67
2021/12/28 07:10:40;;;;;;;13.52;5.32;;;;;;;4.24;100.00;95255.16;5030077;28;20052;-65
2021/12/28 07:13:06;;;;;;;8.75;5.40;;;;;;;4.11;100.00;95257.25;5005186;28;20136;-67
2021/12/28 07:15:31;;;;;;;8.52;5.35;;;;;;;4.07;100.00;95278.88;5029528;28;20041;-66
2021/12/28 07:17:57;;;;;;;13.23;5.18;;;;;;;4.14;100.00;95272.78;5035158;28;20340;-66
2021/12/28 07:20:22;;;;;;;11.55;6.68;;;;;;;4.35;100.00;95284.00;5033850;28;20043;-66
2021/12/28 07:22:48;;;;;;;12.23;6.28;;;;;;;4.31;100.00;95285.88;5037257;28;20056;-65
2021/12/28 07:25:14;;;;;;;8.55;5.57;;;;;;;4.24;100.00;95283.03;5035973;28;20047;-66
2021/12/28 07:27:39;;;;;;;9.32;5.40;;;;;;;4.18;100.00;95289.91;5038776;28;20047;-65
2021/12/28 07:30:08;;;;;;;11.35;5.63;;;;;;;4.25;100.00;95284.63;5032780;28;20394;-65
2021/12/28 07:32:34;;;;;;;9.52;5.85;;;;;;;4.30;100.00;95278.88;5040284;28;20063;-67
2021/12/28 07:35:00;;;;;;;10.45;5.28;;;;;;;4.17;100.00;95297.22;5039998;28;20068;-66
2021/12/28 07:37:25;;;;;;;12.85;6.32;;;;;;;4.26;100.00;95278.03;5034888;28;20588;-64
2021/12/28 07:39:53;;;;;;;11.95;6.32;;;;;;;4.24;100.00;95274.13;5040172;28;20045;-64
2021/12/28 07:42:19;;;;;;;16.17;6.22;;;;;;;4.19;100.00;95267.06;5034194;28;20041;-65
2021/12/28 07:44:44;;;;;;;15.25;6.13;;;;;;;4.26;100.00;95274.53;5039672;28;20044;-64
2021/12/28 07:47:09;;;;;;;19.45;7.30;;;;;;;4.28;100.00;95288.53;5033691;28;20124;-65
2021/12/28 07:49:35;;;;;;;11.48;5.97;;;;;;;4.22;100.00;95294.22;5040323;28;20056;-65
2021/12/28 07:52:01;;;;;;;13.57;6.28;;;;;;;4.16;100.00;95297.59;5039797;28;20354;-64
2021/12/28 07:54:27;;;;;;;15.77;7.03;;;;;;;4.09;100.00;95289.31;5036583;28;20586;-65
2021/12/28 07:56:52;;;;;;;15.10;7.68;;;;;;;3.91;100.00;95283.59;5027985;28;20050;-64
2021/12/28 07:59:17;;;;;;;18.08;7.50;;;;;;;3.80;100.00;95286.88;5025202;28;20052;-65
2021/12/28 08:01:43;;;;;;;14.35;7.35;;;;;;;3.54;100.00;95278.59;5037794;28;20108;-64
2021/12/28 08:04:09;;;;;;;15.00;7.43;;;;;;;3.55;100.00;95280.97;5034772;28;20611;-65
2021/12/28 08:06:34;;;;;;;13.77;7.72;;;;;;;3.55;100.00;95280.19;5039351;28;20044;-64
2021/12/28 08:09:00;;;;;;;15.90;8.15;;;;;;;3.48;100.00;95271.91;5039957;28;20080;-64
2021/12/28 08:11:26;;;;;;;17.85;9.20;;;;;;;3.51;100.00;95271.19;5038148;28;20068;-64
2021/12/28 08:13:51;;;;;;;14.00;9.10;;;;;;;3.63;100.00;95271.81;5048145;28;20052;-64
2021/12/28 08:16:17;;;;;;;19.15;8.40;;;;;;;3.95;100.00;95270.91;5040276;28;20037;-66
2021/12/28 08:18:42;;;;;;;21.50;9.20;;;;;;;3.85;100.00;95260.63;5039653;28;20049;-64
2021/12/28 08:21:08;;;;;;;18.73;8.60;;;;;;;3.83;100.00;95269.13;5012724;28;20119;-65
2021/12/28 08:23:33;;;;;;;12.50;8.90;;;;;;;3.90;100.00;95274.66;5034473;28;20043;-64
2021/12/28 08:25:59;;;;;;;23.70;12.65;;;;;;;3.77;100.00;95268.63;5037986;28;20170;-63
2021/12/28 08:28:24;;;;;;;25.60;15.60;;;;;;;3.85;100.00;95274.19;5032106;28;20044;-63
2021/12/28 08:30:50;;;;;;;34.55;17.50;;;;;;;3.89;100.00;95275.81;5016434;28;20166;-64
2021/12/28 08:33:15;;;;;;;31.63;16.92;;;;;;;4.06;100.00;95290.84;5027341;28;20316;-65
2021/12/28 08:35:41;;;;;;;20.92;8.48;;;;;;;4.14;100.00;95281.72;5043589;28;20063;-64
2021/12/28 08:38:11;;;;;;;13.27;7.20;;;;;;;4.22;100.00;95274.47;5039433;28;20049;-64
2021/12/28 08:40:39;;;;;;;11.60;7.03;;;;;;;4.35;100.00;95296.78;5009625;28;20044;-66
2021/12/28 08:43:06;;;;;;;10.95;6.65;;;;;;;4.47;100.00;95296.59;5040017;28;20037;-64
2021/12/28 08:45:31;;;;;;;11.68;5.45;;;;;;;4.64;100.00;95298.03;5043713;28;20058;-66
2021/12/28 08:47:57;;;;;;;13.43;7.93;;;;;;;4.47;100.00;95288.47;5034237;28;20044;-66
2021/12/28 08:50:23;;;;;;;11.02;5.78;;;;;;;4.64;100.00;95298.03;5042222;28;20041;-66
2021/12/28 08:52:50;;;;;;;8.10;5.88;;;;;;;4.67;100.00;95299.25;5044275;28;20040;-66
2021/12/28 08:55:17;;;;;;;9.27;5.00;;;;;;;4.81;100.00;95304.13;5033778;28;20044;-66
2021/12/28 08:57:43;;;;;;;9.40;4.40;;;;;;;4.90;100.00;95291.88;5042925;28;20390;-66
2021/12/28 09:00:13;;;;;;;10.75;6.45;;;;;;;5.13;100.00;95291.84;5034241;28;20033;-64
2021/12/28 09:02:38;;;;;;;12.32;7.63;;;;;;;5.18;100.00;95282.59;5023325;28;20048;-67
2021/12/28 09:05:04;;;;;;;11.20;7.35;;;;;;;5.26;100.00;95286.97;5031822;28;20037;-64
2021/12/28 09:07:30;;;;;;;7.68;5.07;;;;;;;5.33;100.00;95286.28;5023995;28;20456;-65
2021/12/28 09:09:55;;;;;;;10.48;5.07;;;;;;;5.33;100.00;95299.84;5042968;28;20049;-66
2021/12/28 09:12:21;;;;;;;10.75;5.50;;;;;;;5.32;100.00;95306.44;5037796;28;20047;-65
2021/12/28 09:14:46;;;;;;;10.43;5.63;;;;;;;5.27;100.00;95299.38;5033310;28;20033;-66
2021/12/28 09:17:12;;;;;;;10.30;5.38;;;;;;;5.46;100.00;95295.00;5037832;28;20045;-66
2021/12/28 09:19:37;;;;;;;27.88;18.08;;;;;;;5.06;100.00;95290.94;5042367;28;20041;-65
2021/12/28 09:22:04;;;;;;;23.38;12.43;;;;;;;5.12;100.00;95294.91;5039411;28;20541;-65
2021/12/28 09:24:29;;;;;;;10.63;7.28;;;;;;;5.28;100.00;95287.41;5041965;28;20529;-65
2021/12/28 09:26:55;;;;;;;10.77;7.50;;;;;;;5.20;100.00;95282.22;5023528;28;20099;-65
2021/12/28 09:29:21;;;;;;;13.13;7.72;;;;;;;5.44;100.00;95295.38;5033325;28;20493;-66
2021/12/28 09:31:46;;;;;;;10.05;6.30;;;;;;;5.97;100.00;95291.00;5031563;28;20044;-66
2021/12/28 09:34:11;;;;;;;9.85;5.53;;;;;;;6.59;100.00;95274.13;5037253;28;20040;-65
2021/12/28 09:36:40;;;;;;;7.45;4.53;;;;;;;7.09;100.00;95307.19;5040188;28;20128;-65
2021/12/28 09:39:06;;;;;;;7.55;4.28;;;;;;;7.31;100.00;95296.44;5031670;28;20103;-65
2021/12/28 09:41:32;;;;;;;8.82;4.60;;;;;;;7.09;100.00;95307.19;5021457;28;20041;-65
2021/12/28 09:43:58;;;;;;;8.13;5.05;;;;;;;7.42;100.00;95319.09;5040162;28;20045;-68
2021/12/28 09:46:23;;;;;;;6.95;4.45;;;;;;;7.07;100.00;95302.13;5036008;28;20134;-66
2021/12/28 09:48:49;;;;;;;12.10;7.60;;;;;;;6.05;100.00;95303.50;5041763;28;20377;-64
2021/12/28 09:51:14;;;;;;;10.10;5.45;;;;;;;6.26;100.00;95316.56;5037425;28;20033;-65
2021/12/28 09:53:39;;;;;;;8.00;4.55;;;;;;;6.42;100.00;95308.94;5023077;28;20501;-65
2021/12/28 09:56:06;;;;;;;9.13;5.28;;;;;;;6.22;100.00;95305.66;5041805;28;20051;-66
2021/12/28 09:58:37;;;;;;;7.55;4.43;;;;;;;6.14;100.00;95309.47;5047381;28;20138;-65
2021/12/28 10:01:08;;;;;;;12.27;6.32;;;;;;;6.15;100.00;95296.63;5046369;28;20040;-66
2021/12/28 10:03:35;;;;;;;10.20;6.47;;;;;;;6.18;100.00;95306.78;5043605;28;20041;-65
2021/12/28 10:06:14;;;;;;;10.43;5.63;;;;;;;6.36;100.00;95302.31;5041776;28;20044;-65
2021/12/28 10:08:40;;;;;;;10.70;5.32;;;;;;;6.49;100.00;95294.66;5033096;28;20428;-64
2021/12/28 10:11:05;;;;;;;7.00;4.68;;;;;;;6.65;100.00;95294.41;5035194;28;20052;-64
2021/12/28 10:13:30;;;;;;;11.05;5.13;;;;;;;6.74;100.00;95305.00;5040306;28;20041;-65
2021/12/28 10:15:56;;;;;;;8.65;5.13;;;;;;;6.68;100.00;95299.88;5029357;28;20053;-65
2021/12/28 10:18:22;;;;;;;6.93;4.68;;;;;;;6.92;100.00;95310.56;5032756;28;20056;-65
2021/12/28 10:20:58;;;;;;;6.43;4.35;;;;;;;7.07;100.00;95315.72;5014693;28;20132;-66
2021/12/28 10:23:27;;;;;;;10.68;4.53;;;;;;;7.22;100.00;95307.66;5013223;28;20059;-66
2021/12/28 10:26:06;;;;;;;5.20;3.45;;;;;;;7.26;100.00;95316.66;5021415;28;20044;-65
2021/12/28 10:28:35;;;;;;;5.50;3.90;;;;;;;7.40;100.00;95302.34;5039407;28;20052;-66
2021/12/28 10:31:06;;;;;;;8.13;3.90;;;;;;;7.39;100.00;95309.75;5031933;28;20041;-66
2021/12/28 10:33:36;;;;;;;12.02;6.10;;;;;;;7.19;100.00;95292.09;5042093;28;20371;-66
2021/12/28 10:36:06;;;;;;;;;;;;;;;6.99;100.00;95295.06;4994699;28;20040;-67
2021/12/28 10:38:35;;;;;;;23.30;13.25;;;;;;;7.30;100.00;95290.22;5041521;28;19974;-66
2021/12/28 10:41:12;;;;;;;10.75;5.90;;;;;;;7.68;100.00;95298.22;5041253;28;20056;-67
2021/12/28 10:43:43;;;;;;;5.68;3.60;;;;;;;7.67;100.00;95292.00;5040231;28;20056;-66
2021/12/28 10:46:22;;;;;;;4.72;3.08;;;;;;;7.90;100.00;95288.19;5017017;28;20225;-66
2021/12/28 10:48:52;;;;;;;5.32;3.08;;;;;;;7.93;100.00;95285.47;5042908;28;20132;-66
2021/12/28 10:51:24;;;;;;;4.80;2.30;;;;;;;7.95;100.00;95282.38;5020052;28;20400;-65
2021/12/28 10:56:20;;;;;;;6.78;2.80;;;;;;;7.89;100.00;95275.75;5037242;28;20040;-65
2021/12/28 10:58:49;;;;;;;3.78;1.90;;;;;;;7.71;100.00;95283.84;5048430;28;20102;-64
2021/12/28 11:01:22;;;;;;;3.00;2.08;;;;;;;7.55;100.00;95282.19;5023645;28;20102;-64
2021/12/28 11:03:53;;;;;;;4.03;2.63;;;;;;;7.38;100.00;95277.44;5032769;28;20045;-65
2021/12/28 11:06:24;;;;;;;3.50;1.95;;;;;;;7.37;100.00;95273.16;5035458;28;20044;-65
2021/12/28 11:08:53;;;;;;;2.00;1.30;;;;;;;7.23;100.00;95266.44;5039632;28;20044;-65
2021/12/28 11:11:21;;;;;;;2.30;1.30;;;;;;;7.20;100.00;95261.78;5021926;28;20034;-65
2021/12/28 11:13:48;;;;;;;2.70;1.42;;;;;;;7.37;100.00;95257.59;5030597;28;20052;-64
2021/12/28 11:16:18;;;;;;;4.93;2.03;;;;;;;7.53;100.00;95251.84;5033224;28;20109;-65
2021/12/28 11:18:47;;;;;;;2.72;1.50;;;;;;;7.53;100.00;95253.78;5035420;28;20046;-65
2021/12/28 11:21:17;;;;;;;4.00;1.77;;;;;;;7.64;100.00;95260.06;5006669;28;20061;-64
2021/12/28 11:23:45;;;;;;;2.75;1.83;;;;;;;7.78;100.00;95251.94;5003735;28;20114;-65
2021/12/28 11:26:16;;;;;;;5.68;3.20;;;;;;;7.81;100.00;95239.47;5015255;28;20410;-65
2021/12/28 11:28:51;;;;;;;6.50;3.83;;;;;;;7.95;100.00;95249.66;5031552;28;20044;-65